createdAt,value
2019-05-15T00:00:23.811Z,977.00
2019-05-15T00:01:23.835Z,977.01
2019-05-15T00:02:23.864Z,977.03
2019-05-15T00:03:23.914Z,977.00
2019-05-15T00:04:23.949Z,976.99
2019-05-15T00:05:24.014Z,977.00
2019-05-15T00:06:24.042Z,976.98
2019-05-15T00:07:24.082Z,976.93
2019-05-15T00:08:24.195Z,976.97
2019-05-15T00:09:24.173Z,976.93
2019-05-15T00:10:24.227Z,976.92
2019-05-15T00:11:24.250Z,976.90
2019-05-15T00:12:24.297Z,976.89
2019-05-15T00:13:24.343Z,976.89
2019-05-15T00:14:24.387Z,976.91
2019-05-15T00:15:24.529Z,976.87
2019-05-15T00:16:24.464Z,976.89
2019-05-15T00:17:24.507Z,976.82
2019-05-15T00:18:24.558Z,976.85
2019-05-15T00:19:24.596Z,976.88
2019-05-15T00:20:24.663Z,976.87
2019-05-15T00:21:24.680Z,976.82
2019-05-15T00:22:24.724Z,976.87
2019-05-15T00:23:24.772Z,976.92
2019-05-15T00:24:24.813Z,976.99
2019-05-15T00:25:24.883Z,976.94
2019-05-15T00:26:24.891Z,976.88
2019-05-15T00:27:24.946Z,976.89
2019-05-15T00:28:24.977Z,976.89
2019-05-15T00:29:25.021Z,976.89
2019-05-15T00:30:25.085Z,976.92
2019-05-15T00:31:25.147Z,976.90
2019-05-15T00:32:25.159Z,976.88
2019-05-15T00:33:25.191Z,976.93
2019-05-15T00:34:25.236Z,976.84
2019-05-15T00:35:27.923Z,976.85
2019-05-15T00:36:25.342Z,976.81
2019-05-15T00:37:25.368Z,976.84
2019-05-15T00:38:25.417Z,976.85
2019-05-15T00:39:25.480Z,976.83
2019-05-15T00:40:25.502Z,976.81
2019-05-15T00:41:27.814Z,976.78
2019-05-15T00:42:25.581Z,976.79
2019-05-15T00:43:25.622Z,976.75
2019-05-15T00:44:27.907Z,976.73
2019-05-15T00:45:27.773Z,976.72
2019-05-15T00:46:25.770Z,976.70
2019-05-15T00:47:25.794Z,976.64
2019-05-15T00:48:25.844Z,976.58
2019-05-15T00:49:25.881Z,976.56
2019-05-15T00:50:25.922Z,976.52
2019-05-15T00:51:28.286Z,976.49
2019-05-15T00:52:28.135Z,976.49
2019-05-15T00:53:28.110Z,976.50
2019-05-15T00:54:28.114Z,976.54
2019-05-15T00:55:28.330Z,976.52
2019-05-15T00:56:28.305Z,976.51
2019-05-15T00:57:28.226Z,976.54
2019-05-15T00:58:28.152Z,976.51
2019-05-15T00:59:29.736Z,976.52
2019-05-15T01:00:28.172Z,976.49
2019-05-15T01:01:28.505Z,976.52
2019-05-15T01:02:28.537Z,976.49
2019-05-15T01:03:27.913Z,976.47
2019-05-15T01:04:28.035Z,976.43
2019-05-15T01:05:28.012Z,976.40
2019-05-15T01:06:28.498Z,976.33
2019-05-15T01:07:28.163Z,976.32
2019-05-15T01:08:28.508Z,976.33
2019-05-15T01:09:29.066Z,976.31
2019-05-15T01:10:28.708Z,976.28
2019-05-15T01:11:28.448Z,976.31
2019-05-15T01:12:29.041Z,976.29
2019-05-15T01:13:28.191Z,976.27
2019-05-15T01:14:27.857Z,976.29
2019-05-15T01:15:28.926Z,976.24
2019-05-15T01:16:28.136Z,976.21
2019-05-15T01:17:29.012Z,976.26
2019-05-15T01:18:29.105Z,976.20
2019-05-15T01:19:28.763Z,976.22
2019-05-15T01:20:28.553Z,976.20
2019-05-15T01:21:27.897Z,976.17
2019-05-15T01:22:28.663Z,976.17
2019-05-15T01:23:28.206Z,976.15
2019-05-15T01:24:28.278Z,976.16
2019-05-15T01:25:28.076Z,976.14
2019-05-15T01:26:28.251Z,976.14
2019-05-15T01:27:29.185Z,976.13
2019-05-15T01:28:28.928Z,976.12
2019-05-15T01:29:40.511Z,976.13
2019-05-15T01:30:28.615Z,976.17
2019-05-15T01:31:28.531Z,976.16
2019-05-15T01:32:28.390Z,976.16
2019-05-15T01:33:28.317Z,976.13
2019-05-15T01:34:29.384Z,976.13
2019-05-15T01:35:28.728Z,976.16
2019-05-15T01:36:28.810Z,976.10
2019-05-15T01:37:28.202Z,976.14
2019-05-15T01:38:28.132Z,976.09
2019-05-15T01:39:29.092Z,976.08
2019-05-15T01:40:28.885Z,976.10
2019-05-15T01:41:28.268Z,976.08
2019-05-15T01:42:28.162Z,976.09
2019-05-15T01:43:29.087Z,976.09
2019-05-15T01:44:28.736Z,976.05
2019-05-15T01:45:28.660Z,976.05
2019-05-15T01:46:28.682Z,975.98
2019-05-15T01:47:28.370Z,976.01
2019-05-15T01:48:28.457Z,975.98
2019-05-15T01:49:28.453Z,976.00
2019-05-15T01:50:29.243Z,975.99
2019-05-15T01:51:28.714Z,975.98
2019-05-15T01:52:28.582Z,975.96
2019-05-15T01:53:29.112Z,975.90
2019-05-15T01:54:29.034Z,975.89
2019-05-15T01:55:28.708Z,975.87
2019-05-15T01:56:29.306Z,975.85
2019-05-15T01:57:28.885Z,975.83
2019-05-15T01:58:28.906Z,975.88
2019-05-15T01:59:28.896Z,975.87
2019-05-15T02:00:28.923Z,975.80
2019-05-15T02:01:28.964Z,975.82
2019-05-15T02:02:29.019Z,975.80
2019-05-15T02:03:29.158Z,975.76
2019-05-15T02:04:29.162Z,975.74
2019-05-15T02:05:29.140Z,975.75
2019-05-15T02:06:29.188Z,975.75
2019-05-15T02:07:29.220Z,975.71
2019-05-15T02:08:29.269Z,975.71
2019-05-15T02:09:29.328Z,975.73
2019-05-15T02:10:29.373Z,975.73
2019-05-15T02:11:29.395Z,975.64
2019-05-15T02:12:29.435Z,975.70
2019-05-15T02:13:29.498Z,975.71
2019-05-15T02:14:29.522Z,975.67
2019-05-15T02:15:29.577Z,975.67
2019-05-15T02:16:29.606Z,975.71
2019-05-15T02:17:29.650Z,975.62
2019-05-15T02:18:29.731Z,975.60
2019-05-15T02:19:29.794Z,975.57
2019-05-15T02:20:29.780Z,975.58
2019-05-15T02:21:29.823Z,975.57
2019-05-15T02:22:29.873Z,975.55
2019-05-15T02:23:29.907Z,975.50
2019-05-15T02:24:29.976Z,975.48
2019-05-15T02:25:29.993Z,975.45
2019-05-15T02:26:30.037Z,975.44
2019-05-15T02:27:30.086Z,975.55
2019-05-15T02:28:30.123Z,975.43
2019-05-15T02:29:30.194Z,975.47
2019-05-15T02:30:34.125Z,975.49
2019-05-15T02:31:30.551Z,975.39
2019-05-15T02:32:30.414Z,975.41
2019-05-15T02:33:30.351Z,975.41
2019-05-15T02:34:30.497Z,975.36
2019-05-15T02:35:30.448Z,975.39
2019-05-15T02:36:30.469Z,975.36
2019-05-15T02:37:30.508Z,975.33
2019-05-15T02:38:30.562Z,975.35
2019-05-15T02:39:30.616Z,975.29
2019-05-15T02:40:30.653Z,975.29
2019-05-15T02:41:30.680Z,975.25
2019-05-15T02:42:30.724Z,975.30
2019-05-15T02:43:30.764Z,975.25
2019-05-15T02:44:30.859Z,975.28
2019-05-15T02:45:30.883Z,975.18
2019-05-15T02:46:30.894Z,975.22
2019-05-15T02:47:30.943Z,975.23
2019-05-15T02:48:30.979Z,975.26
2019-05-15T02:49:31.047Z,975.23
2019-05-15T02:50:31.160Z,975.23
2019-05-15T02:51:31.158Z,975.25
2019-05-15T02:52:31.149Z,975.26
2019-05-15T02:53:31.205Z,975.24
2019-05-15T02:54:31.242Z,975.27
2019-05-15T02:55:31.304Z,975.27
2019-05-15T02:56:31.320Z,975.31
2019-05-15T02:57:31.364Z,975.31
2019-05-15T02:58:31.437Z,975.30
2019-05-15T02:59:31.448Z,975.32
2019-05-15T03:00:41.757Z,975.33
2019-05-15T03:01:31.549Z,975.31
2019-05-15T03:02:31.579Z,975.31
2019-05-15T03:03:31.625Z,975.34
2019-05-15T03:04:31.666Z,975.28
2019-05-15T03:05:31.723Z,975.27
2019-05-15T03:06:31.857Z,975.33
2019-05-15T03:07:31.799Z,975.28
2019-05-15T03:08:31.835Z,975.28
2019-05-15T03:09:31.881Z,975.27
2019-05-15T03:10:32.005Z,975.27
2019-05-15T03:11:31.973Z,975.30
2019-05-15T03:12:32.012Z,975.25
2019-05-15T03:13:32.065Z,975.30
2019-05-15T03:14:32.095Z,975.30
2019-05-15T03:15:32.157Z,975.30
2019-05-15T03:16:32.203Z,975.25
2019-05-15T03:17:32.252Z,975.30
2019-05-15T03:18:32.275Z,975.25
2019-05-15T03:19:32.306Z,975.30
2019-05-15T03:20:32.345Z,975.25
2019-05-15T03:21:32.414Z,975.22
2019-05-15T03:22:32.432Z,975.23
2019-05-15T03:23:32.476Z,975.24
2019-05-15T03:24:32.521Z,975.21
2019-05-15T03:25:32.568Z,975.18
2019-05-15T03:26:32.642Z,975.22
2019-05-15T03:27:34.776Z,975.25
2019-05-15T03:28:32.693Z,975.23
2019-05-15T03:29:32.735Z,975.16
2019-05-15T03:31:04.536Z,975.24
2019-05-15T03:31:48.831Z,975.24
2019-05-15T03:32:42.508Z,975.21
2019-05-15T03:33:36.198Z,975.22
2019-05-15T03:34:38.008Z,975.18
2019-05-15T03:35:33.467Z,975.18
2019-05-15T03:36:33.058Z,975.21
2019-05-15T03:37:34.116Z,975.16
2019-05-15T03:38:33.122Z,975.19
2019-05-15T03:39:33.159Z,975.10
2019-05-15T03:40:33.210Z,975.17
2019-05-15T03:41:33.268Z,975.17
2019-05-15T03:42:33.291Z,975.21
2019-05-15T03:43:33.343Z,975.16
2019-05-15T03:44:33.379Z,975.12
2019-05-15T03:45:33.418Z,975.13
2019-05-15T03:46:33.510Z,975.11
2019-05-15T03:47:33.504Z,975.17
2019-05-15T03:48:33.548Z,975.13
2019-05-15T03:49:33.591Z,975.09
2019-05-15T03:50:33.640Z,975.14
2019-05-15T03:51:33.700Z,975.09
2019-05-15T03:52:33.742Z,975.12
2019-05-15T03:53:33.771Z,975.10
2019-05-15T03:54:33.806Z,975.10
2019-05-15T03:55:33.854Z,975.16
2019-05-15T03:56:33.895Z,975.14
2019-05-15T03:57:33.959Z,975.15
2019-05-15T03:58:33.980Z,975.16
2019-05-15T03:59:34.021Z,975.18
2019-05-15T04:00:34.070Z,975.15
2019-05-15T04:01:39.771Z,975.14
2019-05-15T04:02:34.177Z,975.16
2019-05-15T04:03:34.201Z,975.14
2019-05-15T04:04:34.239Z,975.12
2019-05-15T04:05:34.283Z,975.18
2019-05-15T04:06:34.331Z,975.19
2019-05-15T04:07:34.392Z,975.15
2019-05-15T04:08:34.408Z,975.18
2019-05-15T04:09:34.452Z,975.17
2019-05-15T04:10:34.504Z,975.18
2019-05-15T04:11:34.558Z,975.15
2019-05-15T04:12:34.602Z,975.16
2019-05-15T04:13:34.663Z,975.15
2019-05-15T04:14:34.668Z,975.14
2019-05-15T04:15:34.746Z,975.15
2019-05-15T04:16:34.759Z,975.12
2019-05-15T04:17:34.802Z,975.14
2019-05-15T04:18:34.869Z,975.15
2019-05-15T04:19:34.901Z,975.15
2019-05-15T04:20:34.940Z,975.15
2019-05-15T04:21:34.981Z,975.14
2019-05-15T04:22:35.047Z,975.12
2019-05-15T04:23:35.060Z,975.12
2019-05-15T04:24:35.111Z,975.12
2019-05-15T04:25:35.149Z,975.11
2019-05-15T04:26:35.190Z,975.08
2019-05-15T04:27:35.258Z,975.04
2019-05-15T04:28:35.279Z,975.05
2019-05-15T04:29:35.322Z,975.02
2019-05-15T04:30:35.370Z,975.03
2019-05-15T04:31:50.829Z,974.99
2019-05-15T04:32:35.473Z,974.96
2019-05-15T04:33:35.515Z,974.95
2019-05-15T04:34:35.556Z,974.95
2019-05-15T04:35:35.579Z,974.97
2019-05-15T04:36:38.826Z,974.93
2019-05-15T04:37:35.675Z,974.94
2019-05-15T04:38:39.031Z,974.94
2019-05-15T04:39:35.754Z,974.92
2019-05-15T04:40:39.254Z,974.90
2019-05-15T04:41:38.990Z,974.89
2019-05-15T04:42:39.392Z,974.91
2019-05-15T04:43:41.446Z,974.91
2019-05-15T04:44:39.227Z,974.89
2019-05-15T04:45:38.991Z,974.87
2019-05-15T04:46:38.970Z,974.86
2019-05-15T04:47:39.273Z,974.88
2019-05-15T04:48:39.581Z,974.90
2019-05-15T04:49:39.187Z,974.88
2019-05-15T04:50:39.550Z,974.90
2019-05-15T04:51:38.817Z,974.90
2019-05-15T04:52:42.486Z,974.83
2019-05-15T04:53:39.513Z,974.88
2019-05-15T04:54:39.905Z,974.86
2019-05-15T04:55:39.903Z,974.87
2019-05-15T04:56:39.659Z,974.89
2019-05-15T04:57:39.525Z,974.86
2019-05-15T04:58:39.334Z,974.87
2019-05-15T04:59:39.037Z,974.89
2019-05-15T05:00:39.816Z,974.91
2019-05-15T05:01:39.867Z,974.87
2019-05-15T05:02:39.476Z,974.93
2019-05-15T05:03:39.345Z,974.91
2019-05-15T05:04:38.725Z,974.91
2019-05-15T05:05:38.737Z,974.86
2019-05-15T05:06:38.732Z,974.89
2019-05-15T05:07:39.036Z,974.83
2019-05-15T05:08:39.603Z,974.84
2019-05-15T05:09:38.985Z,974.83
2019-05-15T05:10:39.363Z,974.84
2019-05-15T05:11:38.285Z,974.80
2019-05-15T05:12:40.963Z,974.82
2019-05-15T05:13:39.265Z,974.80
2019-05-15T05:14:39.144Z,974.79
2019-05-15T05:15:38.949Z,974.79
2019-05-15T05:16:39.279Z,974.77
2019-05-15T05:17:39.301Z,974.74
2019-05-15T05:18:41.090Z,974.79
2019-05-15T05:19:40.094Z,974.73
2019-05-15T05:20:38.206Z,974.72
2019-05-15T05:21:38.591Z,974.75
2019-05-15T05:22:39.230Z,974.76
2019-05-15T05:23:37.799Z,974.78
2019-05-15T05:24:38.522Z,974.74
2019-05-15T05:25:38.781Z,974.68
2019-05-15T05:26:38.361Z,974.64
2019-05-15T05:27:38.288Z,974.65
2019-05-15T05:28:38.084Z,974.66
2019-05-15T05:29:38.599Z,974.69
2019-05-15T05:30:38.575Z,974.64
2019-05-15T05:31:39.050Z,974.61
2019-05-15T05:32:38.891Z,974.68
2019-05-15T05:33:38.337Z,974.67
2019-05-15T05:34:39.108Z,974.70
2019-05-15T05:35:38.737Z,974.72
2019-05-15T05:36:38.654Z,974.64
2019-05-15T05:37:38.938Z,974.73
2019-05-15T05:38:38.880Z,974.73
2019-05-15T05:39:39.533Z,974.70
2019-05-15T05:40:38.602Z,974.75
2019-05-15T05:41:39.175Z,974.70
2019-05-15T05:42:39.140Z,974.70
2019-05-15T05:43:38.590Z,974.71
2019-05-15T05:44:42.460Z,974.71
2019-05-15T05:45:38.656Z,974.69
2019-05-15T05:46:39.765Z,974.62
2019-05-15T05:47:38.719Z,974.71
2019-05-15T05:48:38.763Z,974.70
2019-05-15T05:49:38.811Z,974.72
2019-05-15T05:50:38.886Z,974.72
2019-05-15T05:51:38.920Z,974.72
2019-05-15T05:52:39.266Z,974.67
2019-05-15T05:53:38.998Z,974.65
2019-05-15T05:54:39.026Z,974.59
2019-05-15T05:55:39.088Z,974.62
2019-05-15T05:56:39.120Z,974.63
2019-05-15T05:57:39.161Z,974.60
2019-05-15T05:58:39.292Z,974.61
2019-05-15T05:59:39.256Z,974.63
2019-05-15T06:00:39.437Z,974.66
2019-05-15T06:01:44.014Z,974.65
2019-05-15T06:02:46.829Z,974.64
2019-05-15T06:03:39.426Z,974.55
2019-05-15T06:04:39.466Z,974.63
2019-05-15T06:05:39.523Z,974.59
2019-05-15T06:06:39.585Z,974.63
2019-05-15T06:07:39.614Z,974.62
2019-05-15T06:08:39.647Z,974.62
2019-05-15T06:09:39.692Z,974.69
2019-05-15T06:10:39.747Z,974.64
2019-05-15T06:11:39.796Z,974.67
2019-05-15T06:12:39.825Z,974.66
2019-05-15T06:13:39.875Z,974.63
2019-05-15T06:14:39.915Z,974.64
2019-05-15T06:15:39.988Z,974.67
2019-05-15T06:16:40.029Z,974.68
2019-05-15T06:17:40.058Z,974.69
2019-05-15T06:18:40.129Z,974.75
2019-05-15T06:19:40.158Z,974.70
2019-05-15T06:20:40.192Z,974.73
2019-05-15T06:21:53.629Z,974.72
2019-05-15T06:22:40.278Z,974.75
2019-05-15T06:23:45.425Z,974.75
2019-05-15T06:24:40.364Z,974.77
2019-05-15T06:25:40.411Z,974.81
2019-05-15T06:26:40.476Z,974.78
2019-05-15T06:27:40.511Z,974.80
2019-05-15T06:28:40.551Z,974.85
2019-05-15T06:29:40.589Z,974.79
2019-05-15T06:30:40.633Z,974.82
2019-05-15T06:31:40.697Z,974.83
2019-05-15T06:32:40.741Z,974.82
2019-05-15T06:33:40.769Z,974.84
2019-05-15T06:34:40.818Z,974.85
2019-05-15T06:35:40.866Z,974.85
2019-05-15T06:36:40.943Z,974.82
2019-05-15T06:37:40.951Z,974.84
2019-05-15T06:38:41.011Z,974.88
2019-05-15T06:39:41.059Z,974.87
2019-05-15T06:40:41.103Z,974.84
2019-05-15T06:41:41.168Z,974.86
2019-05-15T06:42:41.214Z,974.86
2019-05-15T06:43:41.224Z,974.89
2019-05-15T06:44:41.277Z,974.89
2019-05-15T06:45:41.323Z,974.85
2019-05-15T06:46:41.369Z,974.89
2019-05-15T06:47:41.565Z,974.88
2019-05-15T06:48:41.465Z,974.86
2019-05-15T06:49:41.501Z,974.84
2019-05-15T06:50:41.546Z,974.80
2019-05-15T06:51:41.594Z,974.86
2019-05-15T06:52:41.657Z,974.87
2019-05-15T06:53:41.689Z,974.83
2019-05-15T06:54:41.730Z,974.81
2019-05-15T06:55:41.775Z,974.78
2019-05-15T06:56:41.822Z,974.80
2019-05-15T06:57:41.909Z,974.80
2019-05-15T06:58:41.939Z,974.78
2019-05-15T06:59:41.970Z,974.82
2019-05-15T07:00:43.009Z,974.82
2019-05-15T07:01:42.060Z,974.85
2019-05-15T07:02:42.147Z,974.81
2019-05-15T07:03:42.169Z,974.82
2019-05-15T07:04:42.191Z,974.86
2019-05-15T07:05:42.242Z,974.85
2019-05-15T07:06:42.289Z,974.84
2019-05-15T07:07:42.355Z,974.89
2019-05-15T07:08:42.408Z,974.89
2019-05-15T07:09:42.436Z,974.91
2019-05-15T07:10:42.485Z,974.91
2019-05-15T07:11:42.524Z,974.93
2019-05-15T07:12:42.572Z,974.94
2019-05-15T07:13:42.639Z,974.91
2019-05-15T07:14:42.669Z,974.95
2019-05-15T07:15:42.723Z,974.94
2019-05-15T07:16:42.756Z,974.97
2019-05-15T07:17:42.892Z,974.91
2019-05-15T07:18:42.878Z,974.93
2019-05-15T07:19:42.897Z,974.95
2019-05-15T07:20:43.504Z,974.93
2019-05-15T07:21:43.011Z,974.93
2019-05-15T07:22:43.060Z,974.94
2019-05-15T07:23:43.111Z,974.98
2019-05-15T07:24:43.137Z,974.95
2019-05-15T07:25:43.187Z,974.99
2019-05-15T07:26:43.242Z,974.95
2019-05-15T07:27:43.282Z,974.96
2019-05-15T07:28:43.351Z,975.01
2019-05-15T07:29:43.375Z,974.98
2019-05-15T07:30:43.451Z,975.01
2019-05-15T07:31:43.483Z,974.95
2019-05-15T07:32:43.517Z,975.01
2019-05-15T07:33:44.101Z,974.96
2019-05-15T07:34:43.615Z,975.04
2019-05-15T07:35:43.681Z,974.94
2019-05-15T07:36:43.720Z,974.93
2019-05-15T07:37:43.770Z,974.91
2019-05-15T07:38:43.840Z,974.91
2019-05-15T07:39:43.854Z,974.97
2019-05-15T07:40:43.904Z,974.98
2019-05-15T07:41:43.956Z,974.95
2019-05-15T07:42:44.008Z,974.94
2019-05-15T07:43:44.075Z,975.00
2019-05-15T07:44:44.102Z,974.98
2019-05-15T07:45:44.664Z,975.00
2019-05-15T07:46:44.192Z,974.96
2019-05-15T07:47:44.243Z,974.96
2019-05-15T07:48:44.307Z,975.01
2019-05-15T07:49:44.339Z,975.02
2019-05-15T07:50:44.387Z,975.02
2019-05-15T07:51:44.450Z,975.05
2019-05-15T07:52:44.492Z,975.01
2019-05-15T07:53:44.552Z,974.99
2019-05-15T07:54:44.595Z,975.04
2019-05-15T07:55:44.625Z,975.00
2019-05-15T07:56:44.681Z,975.03
2019-05-15T07:57:44.734Z,975.08
2019-05-15T07:58:44.780Z,975.03
2019-05-15T07:59:44.838Z,975.08
2019-05-15T08:00:44.866Z,975.05
2019-05-15T08:01:44.934Z,975.07
2019-05-15T08:02:44.966Z,975.10
2019-05-15T08:03:56.560Z,975.03
2019-05-15T08:04:45.079Z,975.04
2019-05-15T08:05:58.002Z,975.02
2019-05-15T08:06:45.177Z,975.06
2019-05-15T08:07:45.211Z,975.02
2019-05-15T08:08:45.256Z,975.06
2019-05-15T08:09:45.326Z,975.06
2019-05-15T08:10:45.357Z,975.04
2019-05-15T08:11:45.408Z,975.06
2019-05-15T08:12:45.526Z,975.05
2019-05-15T08:13:45.508Z,975.00
2019-05-15T08:14:47.517Z,975.01
2019-05-15T08:15:45.600Z,975.08
2019-05-15T08:16:48.352Z,975.08
2019-05-15T08:18:00.164Z,975.06
2019-05-15T08:18:45.741Z,975.09
2019-05-15T08:19:45.823Z,975.07
2019-05-15T08:20:45.856Z,975.07
2019-05-15T08:21:45.892Z,975.08
2019-05-15T08:22:46.035Z,975.03
2019-05-15T08:23:48.231Z,975.04
2019-05-15T08:24:48.271Z,975.08
2019-05-15T08:25:48.303Z,975.12
2019-05-15T08:26:48.494Z,975.11
2019-05-15T08:27:48.530Z,975.12
2019-05-15T08:28:48.510Z,975.10
2019-05-15T08:29:48.671Z,975.15
2019-05-15T08:30:48.968Z,975.07
2019-05-15T08:31:48.244Z,975.03
2019-05-15T08:32:49.198Z,975.07
2019-05-15T08:33:48.192Z,975.11
2019-05-15T08:34:48.010Z,975.05
2019-05-15T08:35:51.128Z,975.11
2019-05-15T08:36:48.176Z,975.12
2019-05-15T08:37:48.875Z,975.11
2019-05-15T08:38:48.578Z,975.10
2019-05-15T08:39:48.872Z,975.10
2019-05-15T08:40:48.858Z,975.18
2019-05-15T08:41:48.440Z,975.14
2019-05-15T08:42:54.345Z,975.17
2019-05-15T08:43:48.693Z,975.14
2019-05-15T08:44:48.995Z,975.07
2019-05-15T08:45:49.400Z,975.11
2019-05-15T08:46:48.032Z,975.08
2019-05-15T08:47:49.311Z,975.06
2019-05-15T08:48:49.116Z,975.05
2019-05-15T08:49:48.483Z,975.12
2019-05-15T08:50:48.744Z,975.13
2019-05-15T08:51:48.619Z,975.10
2019-05-15T08:52:48.722Z,975.13
2019-05-15T08:53:48.769Z,975.12
2019-05-15T08:54:48.614Z,975.07
2019-05-15T08:55:48.160Z,975.08
2019-05-15T08:56:48.467Z,975.09
2019-05-15T08:57:55.730Z,975.00
2019-05-15T08:58:48.641Z,975.01
2019-05-15T08:59:48.827Z,975.02
2019-05-15T09:00:52.227Z,974.90
2019-05-15T09:01:48.958Z,975.00
2019-05-15T09:02:48.831Z,974.96
2019-05-15T09:03:48.895Z,974.97
2019-05-15T09:04:48.701Z,974.97
2019-05-15T09:05:48.726Z,974.90
2019-05-15T09:06:49.680Z,974.95
2019-05-15T09:07:48.641Z,974.93
2019-05-15T09:08:49.124Z,974.94
2019-05-15T09:09:48.714Z,974.89
2019-05-15T09:10:50.306Z,974.96
2019-05-15T09:11:48.434Z,974.89
2019-05-15T09:12:50.373Z,974.87
2019-05-15T09:13:53.924Z,974.87
2019-05-15T09:14:48.763Z,974.87
2019-05-15T09:15:48.545Z,974.89
2019-05-15T09:16:49.112Z,974.88
2019-05-15T09:17:48.915Z,974.83
2019-05-15T09:18:48.757Z,974.85
2019-05-15T09:19:48.749Z,974.82
2019-05-15T09:20:49.482Z,974.82
2019-05-15T09:21:49.473Z,974.86
2019-05-15T09:22:49.141Z,974.82
2019-05-15T09:23:50.033Z,974.83
2019-05-15T09:24:49.145Z,974.83
2019-05-15T09:25:49.615Z,974.81
2019-05-15T09:26:49.200Z,974.80
2019-05-15T09:27:49.167Z,974.80
2019-05-15T09:28:49.548Z,974.79
2019-05-15T09:29:49.259Z,974.78
2019-05-15T09:30:49.294Z,974.79
2019-05-15T09:31:49.384Z,974.88
2019-05-15T09:32:49.437Z,974.80
2019-05-15T09:33:49.536Z,974.79
2019-05-15T09:34:54.857Z,974.75
2019-05-15T09:35:49.552Z,974.71
2019-05-15T09:36:49.596Z,974.77
2019-05-15T09:37:49.672Z,974.70
2019-05-15T09:38:49.690Z,974.67
2019-05-15T09:39:49.740Z,974.73
2019-05-15T09:40:51.054Z,974.71
2019-05-15T09:41:49.862Z,974.69
2019-05-15T09:42:49.887Z,974.72
2019-05-15T09:43:49.965Z,974.68
2019-05-15T09:44:49.993Z,974.65
2019-05-15T09:45:50.035Z,974.67
2019-05-15T09:46:50.088Z,974.59
2019-05-15T09:47:50.145Z,974.64
2019-05-15T09:48:51.952Z,974.63
2019-05-15T09:49:50.236Z,974.61
2019-05-15T09:50:50.299Z,974.65
2019-05-15T09:51:50.338Z,974.71
2019-05-15T09:52:50.454Z,974.66
2019-05-15T09:53:50.460Z,974.65
2019-05-15T09:54:50.483Z,974.58
2019-05-15T09:55:50.548Z,974.62
2019-05-15T09:56:50.580Z,974.67
2019-05-15T09:57:50.650Z,974.64
2019-05-15T09:58:50.679Z,974.64
2019-05-15T09:59:50.730Z,974.57
2019-05-15T10:00:52.706Z,974.61
2019-05-15T10:01:50.827Z,974.62
2019-05-15T10:02:50.973Z,974.69
2019-05-15T10:03:50.935Z,974.67
2019-05-15T10:05:05.376Z,974.65
2019-05-15T10:05:51.044Z,974.62
2019-05-15T10:06:51.086Z,974.64
2019-05-15T10:07:51.152Z,974.62
2019-05-15T10:08:51.199Z,974.60
2019-05-15T10:09:52.499Z,974.63
2019-05-15T10:10:51.277Z,974.62
2019-05-15T10:11:51.325Z,974.64
2019-05-15T10:12:51.397Z,974.66
2019-05-15T10:13:51.463Z,974.63
2019-05-15T10:14:51.477Z,974.72
2019-05-15T10:15:51.625Z,974.67
2019-05-15T10:16:51.622Z,974.68
2019-05-15T10:17:51.667Z,974.65
2019-05-15T10:18:51.719Z,974.64
2019-05-15T10:19:51.724Z,974.66
2019-05-15T10:20:51.791Z,974.61
2019-05-15T10:21:53.427Z,974.62
2019-05-15T10:22:54.752Z,974.62
2019-05-15T10:23:51.948Z,974.62
2019-05-15T10:24:51.972Z,974.69
2019-05-15T10:25:52.020Z,974.57
2019-05-15T10:26:52.073Z,974.57
2019-05-15T10:27:52.127Z,974.59
2019-05-15T10:28:52.200Z,974.54
2019-05-15T10:29:52.223Z,974.61
2019-05-15T10:30:52.276Z,974.58
2019-05-15T10:31:52.324Z,974.62
2019-05-15T10:32:52.372Z,974.64
2019-05-15T10:33:52.453Z,974.57
2019-05-15T10:34:52.569Z,974.56
2019-05-15T10:35:52.529Z,974.55
2019-05-15T10:36:52.568Z,974.54
2019-05-15T10:37:52.620Z,974.65
2019-05-15T10:38:52.708Z,974.58
2019-05-15T10:39:52.919Z,974.58
2019-05-15T10:41:03.833Z,974.58
2019-05-15T10:41:52.817Z,974.64
2019-05-15T10:42:52.867Z,974.58
2019-05-15T10:43:56.387Z,974.59
2019-05-15T10:44:52.958Z,974.62
2019-05-15T10:45:54.810Z,974.60
2019-05-15T10:46:53.054Z,974.60
2019-05-15T10:47:53.115Z,974.63
2019-05-15T10:48:53.198Z,974.61
2019-05-15T10:49:53.202Z,974.56
2019-05-15T10:50:53.313Z,974.55
2019-05-15T10:51:53.299Z,974.58
2019-05-15T10:52:53.381Z,974.55
2019-05-15T10:53:53.395Z,974.54
2019-05-15T10:54:53.477Z,974.57
2019-05-15T10:55:53.525Z,974.56
2019-05-15T10:56:53.540Z,974.58
2019-05-15T10:57:53.623Z,974.51
2019-05-15T10:58:53.640Z,974.53
2019-05-15T10:59:53.716Z,974.54
2019-05-15T11:00:53.739Z,974.50
2019-05-15T11:01:53.831Z,974.56
2019-05-15T11:02:53.850Z,974.53
2019-05-15T11:03:53.881Z,974.53
2019-05-15T11:04:53.951Z,974.55
2019-05-15T11:05:54.002Z,974.51
2019-05-15T11:06:54.025Z,974.51
2019-05-15T11:07:54.075Z,974.48
2019-05-15T11:08:54.174Z,974.49
2019-05-15T11:09:54.211Z,974.45
2019-05-15T11:10:54.228Z,974.44
2019-05-15T11:11:54.265Z,974.47
2019-05-15T11:12:54.317Z,974.43
2019-05-15T11:13:54.366Z,974.44
2019-05-15T11:14:54.457Z,974.47
2019-05-15T11:15:54.474Z,974.43
2019-05-15T11:16:54.519Z,974.48
2019-05-15T11:17:54.566Z,974.46
2019-05-15T11:18:54.681Z,974.43
2019-05-15T11:19:54.684Z,974.45
2019-05-15T11:20:54.734Z,974.53
2019-05-15T11:21:54.771Z,974.43
2019-05-15T11:22:54.813Z,974.47
2019-05-15T11:23:54.870Z,974.44
2019-05-15T11:24:54.936Z,974.51
2019-05-15T11:25:54.976Z,974.46
2019-05-15T11:26:56.216Z,974.46
2019-05-15T11:27:55.051Z,974.43
2019-05-15T11:28:55.110Z,974.43
2019-05-15T11:29:55.148Z,974.40
2019-05-15T11:30:55.225Z,974.38
2019-05-15T11:31:55.256Z,974.37
2019-05-15T11:32:55.308Z,974.36
2019-05-15T11:33:55.396Z,974.39
2019-05-15T11:34:58.097Z,974.42
2019-05-15T11:36:04.122Z,974.37
2019-05-15T11:36:55.505Z,974.32
2019-05-15T11:37:57.009Z,974.33
2019-05-15T11:38:55.598Z,974.26
2019-05-15T11:39:55.643Z,974.36
2019-05-15T11:40:56.100Z,974.34
2019-05-15T11:41:55.747Z,974.26
2019-05-15T11:42:55.795Z,974.29
2019-05-15T11:43:55.844Z,974.29
2019-05-15T11:44:58.320Z,974.31
2019-05-15T11:45:58.642Z,974.33
2019-05-15T11:46:58.460Z,974.33
2019-05-15T11:47:56.060Z,974.25
2019-05-15T11:48:58.592Z,974.26
2019-05-15T11:49:58.307Z,974.23
2019-05-15T11:50:56.215Z,974.20
2019-05-15T11:52:00.370Z,974.21
2019-05-15T11:52:58.599Z,974.26
2019-05-15T11:53:58.621Z,974.26
2019-05-15T11:54:58.781Z,974.25
2019-05-15T11:55:56.527Z,974.20
2019-05-15T11:56:59.429Z,974.17
2019-05-15T11:57:56.574Z,974.18
2019-05-15T11:58:56.596Z,974.22
2019-05-15T11:59:59.470Z,974.20
2019-05-15T12:00:57.972Z,974.23
2019-05-15T12:01:58.030Z,974.20
2019-05-15T12:02:58.451Z,974.25
2019-05-15T12:03:58.530Z,974.17
2019-05-15T12:04:58.426Z,974.23
2019-05-15T12:05:58.381Z,974.22
2019-05-15T12:07:02.135Z,974.19
2019-05-15T12:07:57.898Z,974.21
2019-05-15T12:08:59.120Z,974.24
2019-05-15T12:09:58.075Z,974.17
2019-05-15T12:10:59.201Z,974.13
2019-05-15T12:11:57.277Z,974.13
2019-05-15T12:12:57.308Z,974.22
2019-05-15T12:13:57.455Z,974.16
2019-05-15T12:14:57.418Z,974.15
2019-05-15T12:15:58.895Z,974.18
2019-05-15T12:17:06.968Z,974.15
2019-05-15T12:17:59.152Z,974.10
2019-05-15T12:19:08.490Z,974.14
2019-05-15T12:20:04.819Z,974.12
2019-05-15T12:20:59.526Z,974.17
2019-05-15T12:21:59.801Z,974.11
2019-05-15T12:22:59.382Z,974.14
2019-05-15T12:23:59.070Z,974.15
2019-05-15T12:25:00.581Z,974.22
2019-05-15T12:25:59.821Z,974.15
2019-05-15T12:27:11.423Z,974.05
2019-05-15T12:27:59.651Z,974.17
2019-05-15T12:28:58.997Z,974.10